Time;durP1;ratioP1;P1;durP2;ratioP2;P2;SDS_P1;SDS_P2;PMS_P1;PMS_P2;Temp;Humidity;BMP_temperature;BMP_pressure;BME280_temperature;BME280_humidity;BME280_pressure;Samples;Min_cycle;Max_cycle;Signal;HPM_P1;HPM_P2
2022/08/21 00:01:05;;;;;;;3.22;1.88;;;;;;;15.59;100.00;96847.75;5006303;28;20038;-63
2022/08/21 00:03:32;;;;;;;3.92;1.88;;;;;;;15.45;100.00;96843.03;5020405;28;20040;-65
2022/08/21 00:05:57;;;;;;;3.20;1.88;;;;;;;15.44;100.00;96842.25;5004003;28;20041;-65
2022/08/21 00:08:23;;;;;;;2.33;1.45;;;;;;;15.47;100.00;96844.22;5000170;28;20602;-64
2022/08/21 00:10:49;;;;;;;8.85;1.70;;;;;;;15.55;100.00;96836.72;5005061;28;20042;-65
2022/08/21 00:13:16;;;;;;;5.97;2.20;;;;;;;15.59;100.00;96840.28;4995800;28;20629;-64
2022/08/21 00:15:43;;;;;;;10.45;1.70;;;;;;;15.55;100.00;96841.44;4996634;28;20099;-64
2022/08/21 00:18:10;;;;;;;5.43;1.95;;;;;;;15.51;100.00;96841.44;4999922;28;20046;-63
2022/08/21 00:20:37;;;;;;;4.53;1.98;;;;;;;15.55;100.00;96831.19;5003624;28;20069;-63
2022/08/21 00:23:03;;;;;;;5.20;1.80;;;;;;;15.53;100.00;96832.78;5003500;28;20046;-66
2022/08/21 00:25:29;;;;;;;4.25;1.60;;;;;;;15.10;100.00;96836.31;5001963;28;20104;-61
2022/08/21 00:27:55;;;;;;;5.25;2.33;;;;;;;14.64;100.00;96834.28;5004082;28;20548;-65
2022/08/21 00:30:23;;;;;;;4.55;2.58;;;;;;;14.44;100.00;96837.34;4988894;28;20052;-63
2022/08/21 00:32:50;;;;;;;8.77;4.00;;;;;;;14.42;100.00;96823.19;4995945;28;20096;-64
2022/08/21 00:35:18;;;;;;;5.40;3.30;;;;;;;14.44;100.00;96823.59;5000823;28;20429;-66
2022/08/21 00:37:44;;;;;;;5.90;2.92;;;;;;;14.43;100.00;96830.25;5013716;28;20049;-61
2022/08/21 00:40:19;;;;;;;3.25;2.30;;;;;;;14.45;100.00;96822.38;5014197;28;20038;-64
2022/08/21 00:42:45;;;;;;;2.65;1.90;;;;;;;14.57;100.00;96832.28;5013848;28;20037;-63
2022/08/21 00:45:11;;;;;;;4.10;2.40;;;;;;;14.68;100.00;96821.31;5013869;28;20037;-61
2022/08/21 00:47:36;;;;;;;8.82;2.95;;;;;;;14.85;100.00;96819.75;5025270;28;20097;-62
2022/08/21 00:50:05;;;;;;;5.55;2.70;;;;;;;15.03;100.00;96808.75;5016592;28;20057;-65
2022/08/21 00:52:33;;;;;;;5.03;2.10;;;;;;;15.23;100.00;96807.19;5024176;28;20098;-64
2022/08/21 00:55:00;;;;;;;2.97;1.88;;;;;;;15.33;100.00;96810.31;5014015;28;20088;-66
2022/08/21 00:57:36;;;;;;;5.43;2.13;;;;;;;15.42;100.00;96814.25;5013714;28;20048;-63
2022/08/21 01:00:07;;;;;;;6.50;2.33;;;;;;;15.42;100.00;96816.22;5003776;28;20612;-63
2022/08/21 01:02:33;;;;;;;4.65;1.92;;;;;;;15.58;100.00;96815.81;5005910;28;20037;-63
2022/08/21 01:04:58;;;;;;;6.25;1.90;;;;;;;15.64;100.00;96815.00;5013606;28;20498;-62
2022/08/21 01:07:24;;;;;;;3.63;1.80;;;;;;;15.66;100.00;96807.13;5013611;28;20056;-62
2022/08/21 01:09:51;;;;;;;2.78;1.50;;;;;;;15.77;100.00;96811.84;5013380;28;20033;-63
2022/08/21 01:12:17;;;;;;;5.03;2.17;;;;;;;15.93;100.00;96812.19;5013815;28;20073;-63
2022/08/21 01:14:44;;;;;;;6.82;1.50;;;;;;;16.01;100.00;96813.00;5012642;28;20100;-63
2022/08/21 01:17:12;;;;;;;2.47;1.60;;;;;;;16.03;100.00;96813.38;5012896;28;20433;-61
2022/08/21 01:19:38;;;;;;;4.18;1.73;;;;;;;15.98;100.00;96811.00;5005138;28;20037;-63
2022/08/21 01:22:04;;;;;;;4.97;1.98;;;;;;;15.80;100.00;96813.81;5013255;28;20494;-64
2022/08/21 01:24:31;;;;;;;12.30;2.03;;;;;;;15.73;100.00;96806.31;5013412;28;20038;-63
2022/08/21 01:26:57;;;;;;;3.30;1.73;;;;;;;15.73;100.00;96803.56;5004148;28;20030;-60
2022/08/21 01:29:37;;;;;;;4.35;1.83;;;;;;;15.76;100.00;96810.28;5004873;28;20041;-61
2022/08/21 01:32:07;;;;;;;6.82;1.98;;;;;;;15.81;100.00;96809.88;5005647;28;20379;-62
2022/08/21 01:34:36;;;;;;;4.43;2.03;;;;;;;15.77;100.00;96809.91;5005036;28;20034;-62
2022/08/21 01:37:02;;;;;;;2.08;1.70;;;;;;;15.95;100.00;96803.53;5011596;28;20029;-61
2022/08/21 01:39:28;;;;;;;9.55;1.92;;;;;;;16.09;100.00;96803.47;5011881;28;20483;-62
2022/08/21 01:41:53;;;;;;;4.75;1.45;;;;;;;16.13;100.00;96795.16;5004728;28;20032;-63
2022/08/21 01:44:23;;;;;;;3.17;1.42;;;;;;;16.07;100.00;96800.31;5027133;28;20057;-62
2022/08/21 01:46:49;;;;;;;2.50;1.45;;;;;;;16.15;100.00;96799.13;5012349;28;20030;-63
2022/08/21 01:49:15;;;;;;;7.00;1.83;;;;;;;16.19;100.00;96786.06;5012564;28;20421;-63
2022/08/21 01:51:41;;;;;;;2.50;1.70;;;;;;;16.23;100.00;96788.81;5012630;28;20060;-62
2022/08/21 01:54:06;;;;;;;3.78;1.63;;;;;;;16.29;100.00;96797.47;5011471;28;20889;-62
2022/08/21 01:56:41;;;;;;;4.45;1.92;;;;;;;16.24;100.00;96793.94;5009401;28;20033;-64
2022/08/21 01:59:07;;;;;;;2.83;1.98;;;;;;;16.07;100.00;96791.25;5012924;28;20080;-63
2022/08/21 02:01:33;;;;;;;5.05;2.10;;;;;;;16.02;100.00;96796.00;5004727;28;20057;-63
2022/08/21 02:03:59;;;;;;;3.05;2.13;;;;;;;15.96;100.00;96789.31;5014275;28;20490;-63
2022/08/21 02:06:25;;;;;;;3.70;2.15;;;;;;;15.82;100.00;96800.41;5014784;28;20058;-61
2022/08/21 02:08:51;;;;;;;6.18;2.28;;;;;;;15.68;100.00;96781.84;5014041;28;20038;-63
2022/08/21 02:11:17;;;;;;;3.95;2.10;;;;;;;15.65;100.00;96790.97;5019524;28;20054;-65
2022/08/21 02:13:43;;;;;;;4.85;2.42;;;;;;;15.61;100.00;96779.94;5024498;28;20085;-65
2022/08/21 02:16:11;;;;;;;3.78;2.10;;;;;;;15.60;100.00;96778.34;5024152;28;20506;-65
2022/08/21 02:18:36;;;;;;;3.00;2.13;;;;;;;15.60;100.00;96774.78;5015392;28;20061;-64
2022/08/21 02:21:03;;;;;;;4.40;2.33;;;;;;;15.60;100.00;96763.75;5011198;28;20120;-64
2022/08/21 02:23:29;;;;;;;5.30;2.40;;;;;;;15.62;100.00;96775.19;5012404;28;20034;-62
2022/08/21 02:25:57;;;;;;;5.35;2.38;;;;;;;15.66;100.00;96774.00;5010658;28;20495;-62
2022/08/21 02:28:22;;;;;;;3.08;2.38;;;;;;;15.68;100.00;96757.81;5012441;28;20107;-65
2022/08/21 02:30:49;;;;;;;2.67;1.92;;;;;;;15.74;100.00;96765.69;5013723;28;20034;-61
2022/08/21 02:33:16;;;;;;;2.33;1.92;;;;;;;15.73;100.00;96769.63;5013331;28;20037;-61
2022/08/21 02:35:43;;;;;;;4.40;2.17;;;;;;;15.66;100.00;96760.19;5012934;28;20030;-62
2022/08/21 02:38:13;;;;;;;3.25;2.15;;;;;;;15.73;100.00;96753.06;5010841;28;20033;-65
2022/08/21 02:40:40;;;;;;;3.28;2.10;;;;;;;15.94;100.00;96763.28;5026716;28;20116;-64
2022/08/21 02:43:07;;;;;;;3.03;2.08;;;;;;;16.03;100.00;96753.38;5010767;28;20490;-62
2022/08/21 02:45:33;;;;;;;5.35;2.20;;;;;;;16.07;100.00;96756.13;5003115;28;20022;-62
2022/08/21 02:48:03;;;;;;;4.85;1.90;;;;;;;16.12;100.00;96752.94;5011822;28;20395;-64
2022/08/21 02:50:33;;;;;;;3.55;1.60;;;;;;;16.27;100.00;96758.41;5012044;28;20030;-65
2022/08/21 02:52:59;;;;;;;5.22;1.88;;;;;;;16.41;100.00;96758.31;5009794;28;20107;-64
2022/08/21 02:55:27;;;;;;;2.90;1.60;;;;;;;16.39;100.00;96750.44;5020171;28;20030;-64
2022/08/21 02:57:54;;;;;;;3.17;1.92;;;;;;;16.30;100.00;96757.59;5018305;28;20101;-65
2022/08/21 03:00:22;;;;;;;3.50;2.05;;;;;;;16.08;100.00;96759.66;5010275;28;20029;-64
2022/08/21 03:02:49;;;;;;;3.45;1.80;;;;;;;15.97;100.00;96759.72;5002812;28;20041;-64
2022/08/21 03:05:16;;;;;;;6.63;2.03;;;;;;;16.01;100.00;96758.53;5011467;28;20038;-65
2022/08/21 03:07:43;;;;;;;3.92;1.60;;;;;;;16.13;100.00;96756.50;5009533;28;20033;-65
2022/08/21 03:10:08;;;;;;;2.75;1.95;;;;;;;16.05;100.00;96758.50;5003021;28;20030;-64
2022/08/21 03:12:37;;;;;;;3.10;1.75;;;;;;;15.94;100.00;96757.75;5011730;28;20038;-63
2022/08/21 03:15:09;;;;;;;9.20;5.05;;;;;;;15.98;100.00;96756.56;5011718;28;20038;-64
2022/08/21 03:17:34;;;;;;;2.92;2.03;;;;;;;16.08;100.00;96754.94;5011314;28;20438;-62
2022/08/21 03:20:00;;;;;;;5.63;1.70;;;;;;;16.18;100.00;96750.53;5011350;28;20042;-64
2022/08/21 03:22:27;;;;;;;2.47;1.58;;;;;;;16.31;100.00;96751.66;5013666;28;20030;-62
2022/08/21 03:24:53;;;;;;;2.80;1.67;;;;;;;16.14;100.00;96755.31;5007194;28;20053;-63
2022/08/21 03:27:19;;;;;;;3.95;2.10;;;;;;;16.10;100.00;96754.53;5015088;28;20386;-63
2022/08/21 03:29:44;;;;;;;3.20;2.03;;;;;;;16.01;100.00;96750.22;5015759;28;20518;-64
2022/08/21 03:32:10;;;;;;;3.58;2.00;;;;;;;15.89;100.00;96753.44;5015215;28;20109;-64
2022/08/21 03:34:37;;;;;;;4.00;2.00;;;;;;;15.94;100.00;96755.00;5012804;28;20038;-62
2022/08/21 03:37:03;;;;;;;4.65;2.00;;;;;;;15.95;100.00;96762.09;5008283;28;20394;-65
2022/08/21 03:39:29;;;;;;;6.13;2.20;;;;;;;15.95;100.00;96748.28;5010408;28;20399;-63
2022/08/21 03:41:54;;;;;;;6.35;2.03;;;;;;;16.04;100.00;96748.63;5014083;28;20042;-63
2022/08/21 03:44:20;;;;;;;4.53;2.00;;;;;;;16.13;100.00;96751.75;5015222;28;20030;-63
2022/08/21 03:46:45;;;;;;;3.30;1.70;;;;;;;15.94;100.00;96755.00;5013810;28;20026;-62
2022/08/21 03:49:11;;;;;;;3.25;1.85;;;;;;;15.94;100.00;96758.53;5014534;28;20041;-63
2022/08/21 03:51:37;;;;;;;3.30;2.03;;;;;;;15.94;100.00;96768.81;5020572;28;20026;-62
2022/08/21 03:54:03;;;;;;;8.10;2.05;;;;;;;16.10;100.00;96766.38;5015064;28;20548;-63
2022/08/21 03:56:28;;;;;;;2.20;1.65;;;;;;;16.28;100.00;96763.53;5013452;28;20038;-64
2022/08/21 03:58:54;;;;;;;4.03;2.00;;;;;;;16.31;100.00;96767.44;5013565;28;20056;-62
2022/08/21 04:01:19;;;;;;;3.30;1.98;;;;;;;16.27;100.00;96764.72;5015063;28;20525;-62
2022/08/21 04:03:45;;;;;;;2.63;1.52;;;;;;;16.12;100.00;96766.75;5014160;28;20057;-63
2022/08/21 04:06:10;;;;;;;3.00;1.67;;;;;;;16.12;100.00;96758.47;5014023;28;20422;-63
2022/08/21 04:08:35;;;;;;;4.90;1.83;;;;;;;16.02;100.00;96754.56;5014776;28;20045;-63
2022/08/21 04:11:02;;;;;;;3.92;1.88;;;;;;;15.88;100.00;96770.41;5015317;28;20438;-61
2022/08/21 04:13:27;;;;;;;6.85;2.17;;;;;;;15.91;100.00;96766.84;5015043;28;20041;-63
2022/08/21 04:15:54;;;;;;;4.85;1.90;;;;;;;15.77;100.00;96770.44;5014581;28;20432;-64
2022/08/21 04:18:20;;;;;;;2.97;1.70;;;;;;;15.81;100.00;96765.69;5013956;28;20072;-61
2022/08/21 04:20:50;;;;;;;3.15;1.70;;;;;;;15.84;100.00;96776.72;5006276;28;20124;-64
2022/08/21 04:23:17;;;;;;;2.78;2.00;;;;;;;15.77;100.00;96771.25;5014939;28;20029;-63
2022/08/21 04:25:43;;;;;;;5.10;2.08;;;;;;;15.74;100.00;96773.97;5014052;28;20053;-61
2022/08/21 04:28:08;;;;;;;3.58;2.00;;;;;;;15.65;100.00;96769.66;5014421;28;20076;-62
2022/08/21 04:30:34;;;;;;;3.28;2.13;;;;;;;15.68;100.00;96771.63;5014612;28;20478;-63
2022/08/21 04:32:59;;;;;;;7.57;2.60;;;;;;;15.69;100.00;96775.16;5012716;28;20048;-62
2022/08/21 04:35:27;;;;;;;3.22;2.22;;;;;;;15.64;100.00;96786.63;5014644;28;20022;-64
2022/08/21 04:37:53;;;;;;;4.32;2.33;;;;;;;15.66;100.00;96782.28;5015677;28;20030;-64
2022/08/21 04:40:19;;;;;;;2.75;1.90;;;;;;;15.77;100.00;96785.06;5015041;28;20049;-63
2022/08/21 04:42:52;;;;;;;3.58;2.40;;;;;;;15.78;100.00;96788.59;5014319;28;20394;-64
2022/08/21 04:45:27;;;;;;;3.30;2.22;;;;;;;15.73;100.00;96794.50;5014466;28;20430;-64
2022/08/21 04:47:56;;;;;;;5.20;2.47;;;;;;;15.74;100.00;96790.56;5012110;28;20038;-64
2022/08/21 04:51:03;;;;;;;2.67;2.00;;;;;;;15.71;100.00;96788.56;5009506;28;20704;-66
2022/08/21 04:53:39;;;;;;;5.13;2.15;;;;;;;15.80;100.00;96798.03;4993113;28;20062;-65
2022/08/21 04:56:11;;;;;;;3.10;1.50;;;;;;;16.03;100.00;96794.81;4994055;28;20085;-66
2022/08/21 04:58:38;;;;;;;2.80;1.92;;;;;;;15.88;100.00;96796.03;4994140;28;20034;-64
2022/08/21 05:01:06;;;;;;;4.35;2.42;;;;;;;15.83;100.00;96797.25;4997605;28;20034;-65
2022/08/21 05:03:34;;;;;;;3.13;2.25;;;;;;;15.75;100.00;96800.41;5013184;28;20061;-66
2022/08/21 05:06:00;;;;;;;2.92;2.00;;;;;;;15.69;100.00;96800.00;5026348;28;20022;-66
2022/08/21 05:08:27;;;;;;;3.05;1.65;;;;;;;15.68;100.00;96796.47;5014812;28;20034;-66
2022/08/21 05:10:54;;;;;;;2.30;1.60;;;;;;;15.76;100.00;96802.00;5013979;28;20036;-65
2022/08/21 05:13:19;;;;;;;3.15;1.92;;;;;;;15.70;100.00;96796.09;5014008;28;20439;-65
2022/08/21 05:15:45;;;;;;;5.10;2.38;;;;;;;15.79;100.00;96795.66;5016272;28;20030;-65
2022/08/21 05:18:11;;;;;;;4.47;2.10;;;;;;;15.70;100.00;96801.59;5014847;28;20034;-64
2022/08/21 05:20:36;;;;;;;2.88;1.80;;;;;;;15.76;100.00;96805.56;5006738;28;20034;-65
2022/08/21 05:23:10;;;;;;;2.30;1.63;;;;;;;15.74;100.00;96807.94;5013772;28;20030;-66
2022/08/21 05:25:36;;;;;;;5.78;2.03;;;;;;;15.78;100.00;96805.16;5004416;28;20083;-66
2022/08/21 05:28:02;;;;;;;4.50;2.20;;;;;;;15.67;100.00;96800.41;5015290;28;20558;-65
2022/08/21 05:30:28;;;;;;;8.20;2.47;;;;;;;15.57;100.00;96803.97;5027682;28;20471;-65
2022/08/21 05:32:58;;;;;;;4.40;1.95;;;;;;;15.65;100.00;96797.25;5012614;28;20033;-65
2022/08/21 05:35:25;;;;;;;4.10;2.63;;;;;;;15.71;100.00;96803.16;5004974;28;20037;-63
2022/08/21 05:37:50;;;;;;;4.85;3.22;;;;;;;15.83;100.00;96802.00;5018950;28;20021;-65
2022/08/21 05:40:15;;;;;;;7.35;3.53;;;;;;;15.76;100.00;96800.03;5013072;28;20057;-64
2022/08/21 05:42:41;;;;;;;5.70;3.40;;;;;;;16.05;100.00;96797.19;5011555;28;20034;-64
2022/08/21 05:45:06;;;;;;;7.97;3.83;;;;;;;16.47;100.00;96800.16;5012950;28;20034;-65
2022/08/21 05:47:32;;;;;;;7.85;4.60;;;;;;;16.27;100.00;96797.88;5012022;28;20026;-67
2022/08/21 05:49:57;;;;;;;8.80;4.65;;;;;;;16.05;100.00;96802.72;5004275;28;20026;-65
2022/08/21 05:52:23;;;;;;;12.35;6.25;;;;;;;15.89;100.00;96802.38;5011626;28;20483;-66
2022/08/21 05:54:48;;;;;;;10.60;6.25;;;;;;;15.76;100.00;96797.28;5012924;28;20080;-66
2022/08/21 05:57:14;;;;;;;12.13;6.10;;;;;;;15.66;100.00;96809.09;5011467;28;20034;-66
2022/08/21 05:59:40;;;;;;;10.55;6.25;;;;;;;15.49;100.00;96811.47;5012158;28;20054;-66
2022/08/21 06:02:07;;;;;;;15.57;6.38;;;;;;;15.49;100.00;96811.47;5012547;28;20088;-66
2022/08/21 06:04:36;;;;;;;13.45;7.20;;;;;;;15.51;100.00;96808.31;5005260;28;20113;-66
2022/08/21 06:07:01;;;;;;;15.27;6.75;;;;;;;15.45;100.00;96809.94;5012483;28;20026;-66
2022/08/21 06:09:27;;;;;;;21.17;8.85;;;;;;;15.26;100.00;96806.38;5012420;28;20132;-66
2022/08/21 06:11:52;;;;;;;20.60;9.20;;;;;;;15.32;100.00;96808.75;5012421;28;20026;-65
2022/08/21 06:14:18;;;;;;;19.88;9.18;;;;;;;15.36;100.00;96798.47;5012400;28;20085;-65
2022/08/21 06:16:43;;;;;;;19.45;9.43;;;;;;;15.55;100.00;96802.81;5027300;28;20034;-66
2022/08/21 06:19:08;;;;;;;19.05;7.90;;;;;;;15.87;100.00;96805.53;5003615;28;20104;-64
2022/08/21 06:21:34;;;;;;;17.50;8.43;;;;;;;15.79;100.00;96793.72;5012935;28;20037;-65
2022/08/21 06:23:59;;;;;;;17.27;8.75;;;;;;;15.81;100.00;96796.88;5013565;28;20100;-66
2022/08/21 06:26:25;;;;;;;18.80;9.63;;;;;;;15.77;100.00;96803.56;5012232;28;20021;-66
2022/08/21 06:28:51;;;;;;;16.52;8.48;;;;;;;15.94;100.00;96802.75;5012243;28;20056;-66
2022/08/21 06:31:20;;;;;;;13.05;8.75;;;;;;;15.70;100.00;96798.84;5012112;28;20026;-66
2022/08/21 06:33:46;;;;;;;14.15;8.35;;;;;;;15.82;100.00;96795.66;5010764;28;20042;-65
2022/08/21 06:36:11;;;;;;;15.20;8.23;;;;;;;15.98;100.00;96800.75;5011614;28;20385;-66
2022/08/21 06:38:38;;;;;;;12.43;7.45;;;;;;;16.08;100.00;96796.38;5002751;28;20113;-65
2022/08/21 06:41:04;;;;;;;10.23;7.15;;;;;;;16.16;100.00;96794.38;5011849;28;20044;-64
2022/08/21 06:43:29;;;;;;;8.65;6.30;;;;;;;16.25;100.00;96794.72;5011998;28;20483;-64
2022/08/21 06:45:55;;;;;;;7.45;5.30;;;;;;;16.46;100.00;96801.31;5011598;28;20037;-66
2022/08/21 06:48:21;;;;;;;7.22;5.50;;;;;;;16.37;100.00;96793.50;5009925;28;20053;-66
2022/08/21 06:50:47;;;;;;;8.02;5.32;;;;;;;16.23;100.00;96806.19;5011717;28;20032;-66
2022/08/21 06:53:15;;;;;;;6.68;5.20;;;;;;;16.49;100.00;96795.00;5011813;28;20034;-66
2022/08/21 06:55:42;;;;;;;9.10;6.18;;;;;;;16.44;100.00;96797.00;5010107;28;20029;-65
2022/08/21 06:58:08;;;;;;;8.27;6.45;;;;;;;16.54;100.00;96798.13;5010326;28;20021;-66
2022/08/21 07:00:34;;;;;;;9.27;6.13;;;;;;;16.76;100.00;96798.81;5012092;28;20029;-66
2022/08/21 07:03:00;;;;;;;9.65;6.60;;;;;;;16.80;100.00;96796.78;5013933;28;20049;-66
2022/08/21 07:05:28;;;;;;;6.15;4.68;;;;;;;17.39;100.00;96795.16;5022021;28;20526;-65
2022/08/21 07:07:53;;;;;;;6.57;4.72;;;;;;;17.89;100.00;96796.69;5021527;28;20030;-65
2022/08/21 07:10:19;;;;;;;7.40;4.60;;;;;;;18.50;100.00;96793.19;5019751;28;20087;-65
2022/08/21 07:12:44;;;;;;;7.88;6.55;;;;;;;17.39;100.00;96798.75;5010931;28;20030;-64
2022/08/21 07:15:10;;;;;;;6.47;5.07;;;;;;;18.08;100.00;96795.31;5016342;28;20034;-64
2022/08/21 07:17:36;;;;;;;6.38;5.28;;;;;;;18.72;100.00;96790.88;5015494;28;20034;-64
2022/08/21 07:20:03;;;;;;;5.57;4.38;;;;;;;19.02;100.00;96794.84;5011818;28;20117;-66
2022/08/21 07:22:29;;;;;;;6.05;4.43;;;;;;;19.33;100.00;96801.06;5012039;28;20041;-63
2022/08/21 07:24:55;;;;;;;5.53;4.60;;;;;;;19.66;100.00;96795.75;5012224;28;20038;-65
2022/08/21 07:27:20;;;;;;;5.60;4.20;;;;;;;19.86;100.00;96806.91;5008715;28;20038;-66
2022/08/21 07:29:45;;;;;;;5.28;4.43;;;;;;;19.99;100.00;96812.66;5002887;28;20387;-64
2022/08/21 07:32:11;;;;;;;5.22;4.05;;;;;;;20.07;100.00;96807.72;5011377;28;20112;-65
2022/08/21 07:34:36;;;;;;;5.43;3.83;;;;;;;20.18;100.00;96806.28;5010357;28;20034;-66
2022/08/21 07:37:02;;;;;;;6.68;5.57;;;;;;;19.32;100.00;96810.63;5010068;28;20135;-65
2022/08/21 07:39:27;;;;;;;6.05;4.35;;;;;;;20.25;100.00;96806.16;5011188;28;20038;-65
2022/08/21 07:41:52;;;;;;;5.57;3.47;;;;;;;21.94;100.00;96802.22;5011510;28;20032;-69
2022/08/21 07:44:18;;;;;;;7.68;3.95;;;;;;;24.02;100.00;96799.84;5011342;28;20034;-66
2022/08/21 07:46:43;;;;;;;4.57;3.33;;;;;;;25.13;94.92;96808.94;5010800;28;20030;-67
2022/08/21 07:49:09;;;;;;;5.53;3.20;;;;;;;25.73;87.59;96797.28;5009696;28;20117;-67
2022/08/21 07:51:34;;;;;;;3.58;2.47;;;;;;;26.64;81.51;96794.91;5002180;28;20096;-67
2022/08/21 07:54:00;;;;;;;3.25;2.28;;;;;;;28.17;71.36;96801.13;5011088;28;20381;-67
2022/08/21 07:56:26;;;;;;;4.32;2.50;;;;;;;28.83;65.19;96805.69;5010900;28;20076;-66
2022/08/21 07:58:53;;;;;;;3.63;1.80;;;;;;;28.17;68.90;96796.28;5010998;28;20038;-65
2022/08/21 08:01:19;;;;;;;3.13;2.33;;;;;;;27.67;69.06;96796.00;5010897;28;20076;-66
2022/08/21 08:03:45;;;;;;;2.97;2.20;;;;;;;26.88;74.33;96797.00;5011109;28;20495;-67
2022/08/21 08:06:12;;;;;;;3.00;2.20;;;;;;;26.02;75.44;96801.69;5010075;28;20030;-66
2022/08/21 08:08:40;;;;;;;3.05;2.28;;;;;;;26.12;77.34;96794.78;5013421;28;20032;-67
2022/08/21 08:11:06;;;;;;;3.58;2.10;;;;;;;27.03;73.37;96797.91;5014884;28;20026;-66
2022/08/21 08:13:32;;;;;;;2.67;1.65;;;;;;;26.66;73.00;96786.78;5014797;28;20398;-67
2022/08/21 08:15:57;;;;;;;2.65;1.65;;;;;;;28.03;68.52;96789.34;5013312;28;20045;-67
2022/08/21 08:18:22;;;;;;;4.25;1.95;;;;;;;27.80;68.44;96790.94;5015103;28;20052;-67
2022/08/21 08:20:48;;;;;;;2.97;1.60;;;;;;;28.34;65.46;96790.97;5013348;28;20033;-65
2022/08/21 08:23:14;;;;;;;11.18;8.13;;;;;;;25.65;76.49;96787.59;5014468;28;20067;-65
2022/08/21 08:25:40;;;;;;;3.95;2.30;;;;;;;26.38;75.48;96788.84;5016434;28;20022;-67
2022/08/21 08:28:06;;;;;;;2.55;1.75;;;;;;;25.97;75.87;96788.25;5016484;28;20038;-67
2022/08/21 08:30:32;;;;;;;2.17;1.50;;;;;;;25.39;81.48;96784.28;5015912;28;20491;-67
2022/08/21 08:32:59;;;;;;;3.33;1.50;;;;;;;25.82;80.29;96784.47;5015617;28;20044;-67
2022/08/21 08:35:25;;;;;;;2.78;1.60;;;;;;;24.56;86.78;96776.31;5015903;28;20066;-65
2022/08/21 08:37:51;;;;;;;2.38;1.23;;;;;;;26.86;76.37;96777.03;5014322;28;20061;-67
2022/08/21 08:40:33;;;;;;;3.13;1.40;;;;;;;26.95;72.22;96776.22;5014021;28;20030;-68
2022/08/21 08:42:59;;;;;;;2.40;1.35;;;;;;;29.07;60.76;96787.84;5013703;28;20030;-67
2022/08/21 08:45:26;;;;;;;2.10;1.33;;;;;;;29.43;55.52;96780.97;5002611;28;20509;-65
2022/08/21 08:48:05;;;;;;;2.03;1.40;;;;;;;31.04;49.15;96781.72;5004308;28;20057;-66
2022/08/21 08:50:36;;;;;;;;;;;;;;;31.32;47.90;96783.97;5004814;28;20059;-66
2022/08/21 08:53:05;;;;;;;1.75;1.10;;;;;;;26.55;62.83;96778.03;4995188;28;19913;-66
2022/08/21 08:55:37;;;;;;;2.28;1.05;;;;;;;27.52;58.37;96770.63;5004368;28;20046;-66
2022/08/21 08:58:03;;;;;;;2.13;1.15;;;;;;;29.54;52.82;96774.69;5002696;28;20042;-65
2022/08/21 09:00:30;;;;;;;2.75;1.00;;;;;;;29.24;53.50;96774.03;5002581;28;20057;-67
2022/08/21 09:02:59;;;;;;;2.75;1.20;;;;;;;28.53;54.32;96768.25;5002896;28;20180;-67
2022/08/21 09:05:44;;;;;;;2.38;1.45;;;;;;;24.21;72.08;96756.78;4989372;28;20034;-65
2022/08/21 09:08:50;;;;;;;3.42;1.00;;;;;;;23.01;80.76;96754.88;4979662;28;20070;-68
2022/08/21 09:11:24;;;;;;;3.40;1.10;;;;;;;26.02;67.43;96747.56;4985812;28;20141;-66
2022/08/21 09:14:02;;;;;;;2.60;1.42;;;;;;;28.48;56.16;96754.84;5002165;28;20046;-67
2022/08/21 09:16:36;;;;;;;1.95;1.08;;;;;;;27.24;58.90;96762.34;5000042;28;20045;-67
2022/08/21 09:19:38;;;;;;;3.22;1.30;;;;;;;29.14;53.99;96764.91;4994724;28;20057;-66
2022/08/21 09:22:15;;;;;;;3.72;1.13;;;;;;;29.88;49.53;96759.00;4972798;28;20046;-64
2022/08/21 09:24:57;;;;;;;2.88;1.50;;;;;;;30.15;47.12;96751.34;5008587;28;20042;-66
2022/08/21 09:27:22;;;;;;;2.22;1.17;;;;;;;29.81;47.34;96750.94;4999281;28;20050;-66
2022/08/21 09:29:51;;;;;;;3.47;1.42;;;;;;;30.01;46.81;96757.84;4994498;28;20061;-66
2022/08/21 09:32:22;;;;;;;3.55;1.42;;;;;;;30.25;45.95;96749.09;4997011;28;20049;-65
2022/08/21 09:35:09;;;;;;;5.38;1.40;;;;;;;30.58;43.60;96751.50;5002892;28;20046;-68
2022/08/21 09:38:07;;;;;;;2.83;1.15;;;;;;;30.64;44.88;96748.72;5018854;28;20124;-69
2022/08/21 09:40:35;;;;;;;2.28;1.00;;;;;;;30.92;44.25;96740.50;5003204;28;20103;-66
2022/08/21 09:43:16;;;;;;;3.95;1.30;;;;;;;31.96;40.33;96739.25;5011035;28;20132;-66
2022/08/21 09:45:44;;;;;;;5.80;1.48;;;;;;;32.22;39.63;96741.16;4989378;28;20038;-67
2022/08/21 09:48:24;;;;;;;3.85;1.23;;;;;;;27.93;48.63;96734.41;4990294;28;20142;-68
2022/08/21 09:50:50;;;;;;;3.97;1.30;;;;;;;29.42;45.45;96734.25;5014767;28;20069;-66
2022/08/21 09:53:26;;;;;;;3.08;1.05;;;;;;;29.65;45.64;96729.69;5011074;28;20566;-67
2022/08/21 09:58:44;;;;;;;5.22;1.10;;;;;;;30.83;41.54;96720.88;5012514;28;20045;-65
2022/08/21 10:01:27;;;;;;;4.95;1.30;;;;;;;30.81;41.55;96721.38;5007871;28;20128;-65
2022/08/21 10:04:09;;;;;;;4.25;1.45;;;;;;;30.20;44.85;96721.59;5003261;28;20053;-66
2022/08/21 10:06:35;;;;;;;2.92;1.35;;;;;;;31.09;42.67;96714.38;5000754;28;20041;-67
2022/08/21 10:09:27;;;;;;;1.92;0.98;;;;;;;31.30;40.95;96729.19;5012412;28;20518;-66
2022/08/21 10:12:08;;;;;;;5.22;1.70;;;;;;;31.73;41.94;96717.78;5003423;28;20038;-66
2022/08/21 10:14:52;;;;;;;4.88;1.20;;;;;;;30.39;43.83;96713.56;4999074;28;20049;-68
2022/08/21 10:17:36;;;;;;;3.58;1.33;;;;;;;30.27;43.97;96707.81;5001865;28;20413;-66
2022/08/21 10:20:08;;;;;;;5.43;1.13;;;;;;;30.82;43.85;96705.19;5012943;28;20095;-64
2022/08/21 10:22:45;;;;;;;4.13;2.17;;;;;;;29.19;47.25;96702.19;4994869;28;20153;-66
2022/08/21 10:25:20;;;;;;;3.72;1.70;;;;;;;29.08;47.53;96696.34;5008390;28;20041;-66
2022/08/21 10:28:01;;;;;;;4.13;1.55;;;;;;;29.01;47.99;96700.38;4995686;28;20046;-67
2022/08/21 10:30:45;;;;;;;4.18;1.33;;;;;;;29.23;47.50;96696.34;4993160;28;20110;-67
2022/08/21 10:33:19;;;;;;;4.03;1.27;;;;;;;28.94;47.09;96703.59;4980757;28;20042;-65
2022/08/21 10:36:19;;;;;;;9.60;3.03;;;;;;;28.94;47.10;96690.28;4984902;28;20137;-66
2022/08/21 10:39:20;;;;;;;4.97;1.77;;;;;;;28.50;48.00;96690.34;4993778;28;20058;-67
2022/08/21 10:41:56;;;;;;;4.97;1.63;;;;;;;27.85;49.18;96685.34;4983490;28;20498;-66
2022/08/21 10:44:38;;;;;;;2.97;1.50;;;;;;;28.06;49.84;96689.09;4997726;28;20136;-65
2022/08/21 10:47:06;;;;;;;3.60;1.40;;;;;;;28.32;47.87;96694.91;5006237;28;20414;-67
2022/08/21 10:49:53;;;;;;;4.55;1.45;;;;;;;28.27;48.57;96680.72;5004230;28;20064;-65
2022/08/21 10:52:39;;;;;;;3.92;1.23;;;;;;;27.84;48.99;96678.94;4998693;28;20127;-67
2022/08/21 10:55:13;;;;;;;4.57;1.45;;;;;;;28.34;48.59;96677.53;5013266;28;20038;-68
2022/08/21 10:57:58;;;;;;;4.22;1.73;;;;;;;28.30;47.89;96685.41;5002289;28;20076;-66
2022/08/21 11:00:33;;;;;;;4.18;1.52;;;;;;;27.76;48.34;96677.00;4997623;28;20049;-67
2022/08/21 11:03:21;;;;;;;7.05;2.13;;;;;;;28.18;47.79;96676.78;5008083;28;20088;-66
2022/08/21 11:05:58;;;;;;;2.50;1.20;;;;;;;27.26;49.22;96683.13;5001870;28;20038;-67
2022/08/21 11:08:33;;;;;;;3.70;1.15;;;;;;;27.03;51.08;96673.47;4996921;28;20048;-66
2022/08/21 11:11:12;;;;;;;4.97;1.90;;;;;;;26.51;52.84;96671.50;5002035;28;20128;-66
2022/08/21 11:13:49;;;;;;;7.03;1.90;;;;;;;26.75;53.35;96667.22;4994916;28;20050;-65
2022/08/21 11:16:56;;;;;;;3.03;1.30;;;;;;;26.88;52.72;96662.13;4987083;28;20038;-66
2022/08/21 11:19:35;;;;;;;6.07;1.95;;;;;;;26.86;51.76;96659.78;4974863;28;21582;-66
2022/08/21 11:22:10;;;;;;;8.88;2.97;;;;;;;26.65;51.75;96666.47;4994676;28;20129;-66
2022/08/21 11:24:47;;;;;;;3.85;1.92;;;;;;;26.48;53.54;96657.63;4991864;28;20042;-66
2022/08/21 11:27:15;;;;;;;6.32;1.60;;;;;;;26.18;54.45;96659.44;4996209;28;20045;-66
2022/08/21 11:29:43;;;;;;;2.35;1.30;;;;;;;26.24;54.28;96652.72;5000652;28;20073;-67
2022/08/21 11:32:17;;;;;;;9.70;1.80;;;;;;;26.35;54.13;96648.63;4990383;28;20041;-71
2022/08/21 11:34:59;;;;;;;3.83;1.10;;;;;;;26.26;54.21;96644.59;5002753;28;20132;-67
2022/08/21 11:37:58;;;;;;;5.18;1.48;;;;;;;25.95;54.70;96650.47;4995750;28;20038;-67
2022/08/21 11:40:38;;;;;;;2.33;1.20;;;;;;;25.84;52.29;96644.50;4991953;28;20551;-67